Time;durP1;ratioP1;P1;durP2;ratioP2;P2;SDS_P1;SDS_P2;PMS_P1;PMS_P2;Temp;Humidity;BMP_temperature;BMP_pressure;BME280_temperature;BME280_humidity;BME280_pressure;Samples;Min_cycle;Max_cycle;Signal;HPM_P1;HPM_P2
2020/12/13 00:01:06;;;;;;;3.97;2.67;;;;;;;4.69;79.69;94682.72;5013781;28;20046;-53
2020/12/13 00:03:33;;;;;;;3.72;2.13;;;;;;;4.86;79.76;94706.72;5013343;28;20411;-51
2020/12/13 00:05:59;;;;;;;2.78;2.03;;;;;;;4.81;79.36;94698.88;5014024;28;20078;-50
2020/12/13 00:08:26;;;;;;;3.70;2.30;;;;;;;4.98;78.86;94702.56;5013463;28;20077;-49
2020/12/13 00:10:56;;;;;;;3.22;2.10;;;;;;;5.06;78.01;94709.75;5014874;28;20561;-49
2020/12/13 00:13:23;;;;;;;3.15;2.20;;;;;;;5.12;78.29;94716.47;5014781;28;20073;-51
2020/12/13 00:15:51;;;;;;;2.97;2.00;;;;;;;4.91;78.60;94711.91;5013820;28;20073;-50
2020/12/13 00:18:17;;;;;;;3.97;2.15;;;;;;;4.90;79.61;94722.94;5014164;28;20115;-48
2020/12/13 00:20:43;;;;;;;2.95;2.10;;;;;;;4.85;79.16;94718.56;5013264;28;20054;-47
2020/12/13 00:23:10;;;;;;;2.78;2.10;;;;;;;4.90;79.45;94722.94;5014429;28;20082;-47
2020/12/13 00:25:36;;;;;;;2.67;1.80;;;;;;;4.95;79.29;94711.25;5012229;28;20082;-50
2020/12/13 00:28:03;;;;;;;2.83;1.98;;;;;;;5.15;78.47;94724.66;5014281;28;20119;-50
2020/12/13 00:30:29;;;;;;;3.10;2.13;;;;;;;5.27;77.89;94726.63;5014092;28;20418;-46
2020/12/13 00:32:55;;;;;;;3.00;1.90;;;;;;;5.34;77.50;94726.09;5013832;28;20129;-48
2020/12/13 00:35:22;;;;;;;3.45;2.40;;;;;;;5.31;77.40;94716.03;5013221;28;20058;-49
2020/12/13 00:37:51;;;;;;;3.13;2.17;;;;;;;5.08;78.11;94740.47;5043326;23;20517;-46
2020/12/13 00:40:18;;;;;;;2.33;1.63;;;;;;;5.11;77.63;94739.06;5034808;28;20053;-45
2020/12/13 00:42:44;;;;;;;2.63;1.70;;;;;;;5.02;77.94;94735.63;5036851;28;20058;-49
2020/12/13 00:45:10;;;;;;;2.72;1.80;;;;;;;5.07;77.46;94738.91;5035068;28;20061;-48
2020/12/13 00:47:37;;;;;;;3.45;2.03;;;;;;;5.14;77.69;94741.88;5036226;28;20569;-47
2020/12/13 00:50:04;;;;;;;2.53;1.80;;;;;;;5.07;77.73;94743.47;5034291;28;20054;-45
2020/12/13 00:52:30;;;;;;;2.90;1.90;;;;;;;5.20;77.51;94741.66;5034460;28;20058;-47
2020/12/13 00:54:57;;;;;;;2.55;1.70;;;;;;;4.87;78.62;94751.16;5033548;28;20045;-45
2020/12/13 00:57:25;;;;;;;2.55;2.00;;;;;;;4.84;78.98;94753.72;5032689;28;20041;-46
2020/12/13 00:59:53;;;;;;;2.55;1.60;;;;;;;5.21;77.75;94759.34;5033799;28;20049;-50
2020/12/13 01:02:20;;;;;;;3.53;2.10;;;;;;;5.45;76.44;94747.94;5033766;28;20099;-48
2020/12/13 01:04:47;;;;;;;2.80;1.80;;;;;;;5.31;76.87;94765.09;5033734;28;20076;-52
2020/12/13 01:07:14;;;;;;;2.28;1.63;;;;;;;5.18;76.71;94766.13;5032776;28;20037;-51
2020/12/13 01:09:40;;;;;;;2.42;1.58;;;;;;;5.10;77.18;94754.34;5031992;28;20053;-46
2020/12/13 01:12:07;;;;;;;2.38;1.77;;;;;;;5.07;78.42;94775.66;5033110;28;20061;-49
2020/12/13 01:14:33;;;;;;;3.50;1.52;;;;;;;5.05;78.02;94778.66;5032038;28;20387;-51
2020/12/13 01:17:00;;;;;;;3.22;1.98;;;;;;;5.14;77.74;94775.94;5031322;28;20449;-51
2020/12/13 01:19:27;;;;;;;2.75;1.80;;;;;;;4.93;78.67;94782.03;5033015;28;20053;-47
2020/12/13 01:21:56;;;;;;;4.70;2.60;;;;;;;5.05;79.23;94783.25;5032980;28;20139;-46
2020/12/13 01:24:22;;;;;;;2.92;1.90;;;;;;;5.04;79.00;94795.88;5016044;28;20077;-50
2020/12/13 01:26:48;;;;;;;3.92;2.35;;;;;;;5.09;79.30;94792.97;5032408;28;20065;-52
2020/12/13 01:29:15;;;;;;;3.90;2.15;;;;;;;5.02;79.72;94791.94;5032867;28;20064;-46
2020/12/13 01:31:41;;;;;;;2.78;1.85;;;;;;;5.11;79.40;94790.78;5033058;28;20053;-51
2020/12/13 01:34:08;;;;;;;3.03;2.08;;;;;;;5.03;79.50;94782.78;5031717;28;20327;-52
2020/12/13 01:36:35;;;;;;;3.05;2.05;;;;;;;4.64;81.56;94793.53;5030825;28;20052;-50
2020/12/13 01:39:03;;;;;;;4.40;2.03;;;;;;;4.71;81.38;94792.25;5031444;28;20076;-51
2020/12/13 01:41:29;;;;;;;3.58;2.20;;;;;;;5.00;80.54;94796.81;5032515;28;20057;-47
2020/12/13 01:44:02;;;;;;;3.60;2.30;;;;;;;4.87;81.03;94804.00;5031597;28;20076;-48
2020/12/13 01:46:29;;;;;;;3.80;2.30;;;;;;;4.96;80.36;94803.94;5032167;28;20049;-47
2020/12/13 01:49:04;;;;;;;3.10;1.95;;;;;;;4.97;79.96;94808.97;5032424;28;20049;-50
2020/12/13 01:52:38;;;;;;;2.67;1.92;;;;;;;4.77;81.10;94810.50;5031368;28;20057;-47
2020/12/13 01:54:44;;;;;;;4.40;1.80;;;;;;;4.62;81.34;94808.38;5032567;28;20136;-46
2020/12/13 01:57:12;;;;;;;4.07;2.05;;;;;;;5.02;79.98;94826.78;5031636;28;20071;-50
2020/12/13 01:59:39;;;;;;;3.00;2.00;;;;;;;4.86;80.58;94816.59;5032488;28;20404;-48
2020/12/13 02:02:07;;;;;;;2.60;1.83;;;;;;;5.14;80.01;94816.94;5032309;28;20053;-46
2020/12/13 02:04:37;;;;;;;2.30;1.73;;;;;;;5.34;78.83;94822.66;5032517;28;20059;-49
2020/12/13 02:07:04;;;;;;;4.60;2.25;;;;;;;5.03;79.61;94829.13;5031499;28;20045;-50
2020/12/13 02:09:30;;;;;;;2.88;1.60;;;;;;;5.03;79.48;94829.13;5032373;28;20348;-44
2020/12/13 02:11:57;;;;;;;2.88;1.77;;;;;;;4.85;80.26;94823.09;5031016;28;20459;-44
2020/12/13 02:14:26;;;;;;;2.30;1.50;;;;;;;5.07;79.87;94823.91;5032288;28;20403;-46
2020/12/13 02:16:53;;;;;;;2.22;1.60;;;;;;;5.00;79.67;94824.41;5030460;28;20453;-46
2020/12/13 02:19:20;;;;;;;2.50;1.80;;;;;;;4.89;80.23;94821.31;5032738;28;20046;-45
2020/12/13 02:21:49;;;;;;;2.33;1.50;;;;;;;4.91;80.75;94824.47;5031294;28;20518;-46
2020/12/13 02:24:17;;;;;;;2.75;2.03;;;;;;;4.98;80.55;94825.88;5031044;28;20053;-48
2020/12/13 02:26:44;;;;;;;3.00;2.03;;;;;;;5.20;79.95;94836.31;5031502;28;20053;-47
2020/12/13 02:29:12;;;;;;;3.50;1.77;;;;;;;5.12;79.57;94826.41;5032340;28;20076;-48
2020/12/13 02:31:39;;;;;;;3.13;1.80;;;;;;;4.90;80.65;94836.28;5032216;28;20417;-47
2020/12/13 02:34:06;;;;;;;2.53;1.70;;;;;;;4.95;80.28;94829.19;5031933;28;20095;-48
2020/12/13 02:36:33;;;;;;;2.22;1.70;;;;;;;5.08;79.89;94841.59;5031416;28;20047;-48
2020/12/13 02:39:03;;;;;;;3.70;1.77;;;;;;;4.60;81.12;94806.00;5030502;28;20053;-47
2020/12/13 02:41:30;;;;;;;2.60;1.70;;;;;;;5.00;80.79;94847.75;5030737;28;20050;-47
2020/12/13 02:43:56;;;;;;;2.78;1.70;;;;;;;4.90;80.95;94841.66;5031709;28;20058;-49
2020/12/13 02:46:23;;;;;;;2.65;1.60;;;;;;;5.10;80.63;94852.75;5030995;28;20049;-49
2020/12/13 02:48:49;;;;;;;2.65;1.80;;;;;;;5.21;79.96;94853.19;5031863;28;20053;-48
2020/12/13 02:51:16;;;;;;;2.85;1.90;;;;;;;5.17;80.01;94858.41;5031658;28;20072;-47
2020/12/13 02:53:42;;;;;;;2.60;1.90;;;;;;;5.07;80.32;94862.25;5030806;28;20061;-44
2020/12/13 02:56:09;;;;;;;2.78;1.80;;;;;;;5.08;80.38;94853.09;5031854;28;20399;-48
2020/12/13 02:58:35;;;;;;;2.80;2.13;;;;;;;5.16;79.88;94862.19;5032250;28;20553;-50
2020/12/13 03:01:01;;;;;;;3.45;2.05;;;;;;;5.04;80.27;94862.88;5031994;28;20518;-47
2020/12/13 03:03:28;;;;;;;3.55;2.20;;;;;;;4.91;80.94;94864.69;5032005;28;20421;-46
2020/12/13 03:05:55;;;;;;;3.35;2.30;;;;;;;5.02;80.85;94870.47;5030821;28;20100;-47
2020/12/13 03:08:21;;;;;;;3.13;2.30;;;;;;;5.15;79.99;94864.09;5031453;28;20042;-45
2020/12/13 03:10:48;;;;;;;3.17;2.22;;;;;;;5.25;80.02;94873.66;5031723;28;20132;-50
2020/12/13 03:13:14;;;;;;;3.13;2.25;;;;;;;5.19;79.67;94848.13;5030453;28;20049;-44
2020/12/13 03:15:41;;;;;;;3.70;2.60;;;;;;;5.23;80.20;94873.22;5031039;28;20053;-48
2020/12/13 03:18:08;;;;;;;2.95;2.05;;;;;;;5.24;80.06;94877.47;5031307;28;20049;-46
2020/12/13 03:20:35;;;;;;;4.10;2.53;;;;;;;4.96;79.88;94861.03;5031459;28;20053;-45
2020/12/13 03:23:02;;;;;;;3.30;2.40;;;;;;;5.20;80.07;94875.72;5031487;28;20084;-45
2020/12/13 03:25:29;;;;;;;3.60;2.40;;;;;;;5.20;80.13;94871.19;5030678;28;20054;-46
2020/12/13 03:27:55;;;;;;;2.67;1.90;;;;;;;5.38;79.11;94878.00;5031434;28;20497;-49
2020/12/13 03:30:21;;;;;;;2.85;2.00;;;;;;;5.32;79.70;94884.66;5031716;28;20555;-51
2020/12/13 03:32:48;;;;;;;3.05;2.10;;;;;;;5.32;79.55;94884.66;5031496;28;20049;-44
2020/12/13 03:35:15;;;;;;;3.42;2.20;;;;;;;5.38;79.13;94888.72;5029908;28;20077;-51
2020/12/13 03:37:41;;;;;;;3.38;2.25;;;;;;;5.25;79.74;94891.66;5030601;28;20053;-47
2020/12/13 03:40:11;;;;;;;3.35;2.20;;;;;;;5.24;79.78;94890.88;5031309;28;20105;-45
2020/12/13 03:42:41;;;;;;;3.70;2.60;;;;;;;5.09;79.60;94894.09;5032296;28;20510;-52
2020/12/13 03:45:08;;;;;;;3.40;2.47;;;;;;;5.13;80.02;94898.50;5033409;28;20087;-54
2020/12/13 03:47:35;;;;;;;3.90;2.50;;;;;;;5.01;80.72;94894.91;5033881;28;20053;-51
2020/12/13 03:50:04;;;;;;;4.28;2.22;;;;;;;5.22;80.13;94901.13;5034763;28;20077;-44
2020/12/13 03:52:31;;;;;;;3.55;2.50;;;;;;;5.43;78.88;94901.19;5033268;28;20050;-51
2020/12/13 03:54:58;;;;;;;3.75;2.63;;;;;;;5.29;79.87;94904.06;5033378;28;20419;-52
2020/12/13 03:57:25;;;;;;;3.50;2.50;;;;;;;5.12;80.96;94901.47;5032872;28;20530;-50
2020/12/13 03:59:52;;;;;;;3.40;2.47;;;;;;;5.32;79.24;94889.25;5033274;28;20080;-48
2020/12/13 04:02:18;;;;;;;4.38;2.67;;;;;;;5.16;80.45;94899.72;5034454;28;20107;-46
2020/12/13 04:04:45;;;;;;;4.50;2.78;;;;;;;5.23;80.53;94907.25;5034441;28;20048;-48
2020/12/13 04:07:12;;;;;;;4.25;3.00;;;;;;;5.46;79.59;94910.47;5033370;28;20056;-48
2020/12/13 04:09:38;;;;;;;5.35;2.83;;;;;;;5.38;80.21;94902.13;5034099;28;20057;-50
2020/12/13 04:12:05;;;;;;;4.30;2.95;;;;;;;5.46;79.33;94908.59;5033306;28;20050;-48
2020/12/13 04:14:32;;;;;;;4.45;3.08;;;;;;;5.45;79.69;94903.53;5032969;28;20072;-46
2020/12/13 04:16:58;;;;;;;4.78;3.20;;;;;;;5.44;80.03;94912.69;5033911;28;20545;-51
2020/12/13 04:19:25;;;;;;;5.13;3.22;;;;;;;5.51;79.46;94921.00;5034568;28;20081;-46
2020/12/13 04:21:52;;;;;;;6.88;3.40;;;;;;;5.48;79.77;94914.41;5033986;28;20439;-49
2020/12/13 04:24:18;;;;;;;6.65;3.40;;;;;;;5.41;80.02;94922.16;5033845;28;20057;-47
2020/12/13 04:26:46;;;;;;;4.97;3.47;;;;;;;5.23;80.78;94924.16;5033490;28;20046;-46
2020/12/13 04:29:12;;;;;;;4.97;3.55;;;;;;;5.34;80.50;94929.94;5033162;28;20049;-48
2020/12/13 04:31:40;;;;;;;5.20;3.40;;;;;;;5.14;81.06;94921.50;5034126;28;20457;-50
2020/12/13 04:34:06;;;;;;;4.70;3.28;;;;;;;5.28;80.90;94932.00;5033845;28;20075;-49
2020/12/13 04:36:33;;;;;;;4.85;3.45;;;;;;;5.09;81.85;94926.25;5032078;28;20356;-50
2020/12/13 04:38:59;;;;;;;5.00;3.58;;;;;;;5.34;80.71;94935.31;5033551;28;20352;-48
2020/12/13 04:41:26;;;;;;;5.50;3.55;;;;;;;5.46;79.88;94939.97;5032746;28;20060;-46
2020/12/13 04:43:53;;;;;;;4.82;3.40;;;;;;;5.06;81.38;94932.25;5033869;28;20425;-46
2020/12/13 04:46:26;;;;;;;5.28;3.67;;;;;;;5.43;80.57;94949.47;5031958;28;20069;-45
2020/12/13 04:48:52;;;;;;;5.50;3.70;;;;;;;5.34;80.46;94946.81;5033420;28;20056;-47
2020/12/13 04:51:24;;;;;;;5.38;3.65;;;;;;;5.12;80.46;94906.84;5033723;28;20053;-45
2020/12/13 04:54:02;;;;;;;4.38;3.28;;;;;;;5.54;79.74;94945.28;5033592;28;20103;-52
2020/12/13 04:56:33;;;;;;;5.10;3.80;;;;;;;5.46;80.66;94961.44;5033014;28;20076;-47
2020/12/13 04:59:05;;;;;;;5.20;3.85;;;;;;;5.07;80.98;94933.81;5033431;28;20073;-52
2020/12/13 05:01:32;;;;;;;8.10;3.63;;;;;;;5.15;81.05;94960.63;5033216;28;20171;-51
2020/12/13 05:03:59;;;;;;;5.82;4.05;;;;;;;5.25;81.19;94964.06;5033207;28;20045;-50
2020/12/13 05:06:25;;;;;;;5.95;4.00;;;;;;;5.31;80.92;94962.78;5032337;28;20463;-47
2020/12/13 05:08:53;;;;;;;6.07;4.15;;;;;;;5.60;79.70;94962.78;5033007;28;20103;-50
2020/12/13 05:11:19;;;;;;;7.88;4.60;;;;;;;5.50;80.31;94965.06;5033292;28;20124;-53
2020/12/13 05:13:47;;;;;;;6.82;4.68;;;;;;;5.48;80.15;94970.72;5033095;28;20111;-48
2020/12/13 05:16:14;;;;;;;7.80;4.57;;;;;;;5.42;80.47;94974.69;5032305;28;20463;-45
2020/12/13 05:18:41;;;;;;;6.78;4.85;;;;;;;5.31;81.27;94982.31;5032835;28;20104;-50
2020/12/13 05:21:08;;;;;;;7.65;5.13;;;;;;;5.48;80.73;94980.69;5033100;28;20053;-50
2020/12/13 05:23:34;;;;;;;7.43;5.40;;;;;;;5.46;80.77;94985.56;5031464;28;20081;-45
2020/12/13 05:26:01;;;;;;;6.53;4.88;;;;;;;5.33;81.27;94992.72;5031889;28;20448;-45
2020/12/13 05:28:27;;;;;;;8.00;4.97;;;;;;;5.12;82.12;94993.44;5032428;28;20063;-54
2020/12/13 05:30:54;;;;;;;8.02;5.40;;;;;;;5.24;82.11;94992.78;5032402;28;20057;-54
2020/12/13 05:33:37;;;;;;;8.82;5.88;;;;;;;5.31;81.56;94998.41;5032772;28;20152;-50
2020/12/13 05:36:16;;;;;;;7.63;5.38;;;;;;;5.18;82.25;95004.00;5088862;27;20712;-50
2020/12/13 05:38:43;;;;;;;10.35;5.50;;;;;;;5.25;82.05;94997.03;5089403;28;20084;-51
2020/12/13 05:41:12;;;;;;;7.32;5.38;;;;;;;5.29;81.91;95011.34;5089446;28;20473;-47
2020/12/13 05:43:47;;;;;;;8.48;5.50;;;;;;;5.13;82.02;95010.28;5089436;28;20097;-46
2020/12/13 05:50:21;;;;;;;9.02;5.72;;;;;;;5.29;81.88;95018.63;5107278;28;20121;-45
2020/12/13 05:52:17;;;;;;;9.88;5.82;;;;;;;5.15;82.60;95029.56;5103688;28;20078;-53
2020/12/13 05:54:46;;;;;;;8.85;6.18;;;;;;;5.27;82.17;95036.94;5095116;28;20048;-48
2020/12/13 05:57:13;;;;;;;9.95;6.43;;;;;;;5.40;81.90;95027.91;5070533;28;20239;-51
2020/12/13 05:59:39;;;;;;;8.57;5.97;;;;;;;5.30;81.87;95042.44;5088669;28;20198;-48
2020/12/13 06:02:10;;;;;;;10.10;6.90;;;;;;;5.41;81.73;95034.06;5088643;28;20094;-51
2020/12/13 06:04:44;;;;;;;9.80;6.47;;;;;;;5.34;82.14;95038.00;5087481;28;20127;-47
2020/12/13 06:07:11;;;;;;;10.40;6.38;;;;;;;5.33;81.84;95032.97;5087878;28;20489;-50
2020/12/13 06:09:44;;;;;;;9.85;6.70;;;;;;;5.22;82.33;95040.56;5088453;28;20067;-47
2020/12/13 06:12:12;;;;;;;9.57;6.47;;;;;;;5.22;82.30;95040.56;5087429;28;20420;-52
2020/12/13 06:14:41;;;;;;;10.63;6.63;;;;;;;5.03;82.40;95032.88;5088845;28;20052;-50
2020/12/13 06:17:08;;;;;;;13.10;7.90;;;;;;;5.26;82.48;95046.06;5087632;28;20052;-49
2020/12/13 06:19:38;;;;;;;9.75;5.93;;;;;;;5.12;82.76;95048.94;5088355;28;20052;-50
2020/12/13 06:22:13;;;;;;;9.05;6.35;;;;;;;5.24;82.42;95049.09;5088437;28;20056;-45
2020/12/13 06:24:45;;;;;;;10.32;6.95;;;;;;;5.16;82.71;95036.47;5088315;28;20075;-46
2020/12/13 06:27:12;;;;;;;9.88;6.55;;;;;;;5.39;82.12;95051.25;5087572;28;20505;-47
2020/12/13 06:29:41;;;;;;;10.43;6.95;;;;;;;5.30;82.71;95052.41;5088292;28;20056;-45
2020/12/13 06:32:09;;;;;;;11.55;7.18;;;;;;;5.32;82.88;95063.56;5088224;28;20117;-47
2020/12/13 06:34:41;;;;;;;12.60;7.68;;;;;;;5.27;82.62;95075.28;5088009;28;20091;-50
2020/12/13 06:37:09;;;;;;;11.93;7.82;;;;;;;5.14;83.70;95060.94;5087169;28;20056;-49
2020/12/13 06:39:40;;;;;;;10.05;7.25;;;;;;;5.29;83.02;95077.63;5088144;28;20059;-50
2020/12/13 06:42:07;;;;;;;11.07;7.63;;;;;;;5.31;82.55;95065.47;5088000;28;20059;-52
2020/12/13 06:44:33;;;;;;;10.23;7.05;;;;;;;5.43;82.77;95077.44;5087808;28;20047;-49
2020/12/13 06:47:00;;;;;;;11.52;8.07;;;;;;;5.35;82.42;95062.94;5059173;28;20051;-53
2020/12/13 06:49:27;;;;;;;13.90;8.27;;;;;;;5.42;82.92;95079.31;5074302;28;20140;-51
2020/12/13 06:51:53;;;;;;;12.40;7.40;;;;;;;5.38;81.45;95033.56;5074442;28;20135;-47
2020/12/13 06:54:21;;;;;;;11.93;8.00;;;;;;;5.54;81.84;95086.72;5074221;28;20098;-47
2020/12/13 06:56:48;;;;;;;12.05;7.35;;;;;;;5.16;83.74;95090.88;5073384;28;20052;-46
2020/12/13 06:59:18;;;;;;;9.93;6.45;;;;;;;5.22;83.53;95086.16;5073052;28;20051;-49
2020/12/13 07:01:46;;;;;;;12.60;7.85;;;;;;;5.14;83.02;95074.34;5074233;28;20049;-47
2020/12/13 07:04:39;;;;;;;12.45;7.03;;;;;;;5.42;82.53;95097.31;5074244;28;20052;-48
2020/12/13 07:09:32;;;;;;;11.15;6.93;;;;;;;5.31;82.79;95102.25;5074125;28;20268;-45
2020/12/13 07:12:00;;;;;;;10.95;7.38;;;;;;;5.22;83.71;95099.56;5073846;28;20048;-50
2020/12/13 07:14:30;;;;;;;12.82;7.30;;;;;;;5.44;82.85;95113.91;5074142;28;20417;-49
2020/12/13 07:17:03;;;;;;;12.57;8.13;;;;;;;5.37;82.99;95114.38;5073312;28;20058;-48
2020/12/13 07:19:33;;;;;;;11.15;7.85;;;;;;;5.51;82.66;95119.56;5074131;28;20056;-53
2020/12/13 07:22:11;;;;;;;10.77;7.60;;;;;;;5.42;82.72;95121.47;5072496;28;20048;-53
2020/12/13 07:24:42;;;;;;;12.63;8.15;;;;;;;5.55;82.58;95117.81;5073782;28;20056;-51
2020/12/13 07:27:09;;;;;;;11.15;7.38;;;;;;;5.63;81.62;95117.00;5073372;28;20307;-50
2020/12/13 07:29:36;;;;;;;12.00;7.47;;;;;;;5.63;81.78;95123.16;5072395;28;20053;-49
2020/12/13 07:32:04;;;;;;;13.25;7.88;;;;;;;5.61;81.93;95132.63;5073582;28;20078;-48
2020/12/13 07:34:31;;;;;;;12.27;7.60;;;;;;;5.59;82.34;95135.66;5073289;28;20131;-47
2020/12/13 07:36:59;;;;;;;14.52;8.13;;;;;;;5.34;83.48;95134.56;5072752;28;20135;-48
2020/12/13 07:39:28;;;;;;;13.52;8.13;;;;;;;5.45;82.36;95128.88;5073327;28;20059;-50
2020/12/13 07:41:54;;;;;;;12.93;8.23;;;;;;;5.38;82.94;95118.63;5073332;28;20586;-47
2020/12/13 07:44:30;;;;;;;11.43;7.63;;;;;;;5.63;82.26;95146.53;5072321;28;20051;-48
2020/12/13 07:46:56;;;;;;;10.60;7.20;;;;;;;5.41;82.81;95146.72;5072782;28;20079;-46
2020/12/13 07:49:23;;;;;;;12.65;7.75;;;;;;;5.44;82.79;95143.41;5073817;28;20106;-51
2020/12/13 07:51:51;;;;;;;10.63;6.95;;;;;;;5.45;82.50;95155.69;5073508;28;20102;-49
2020/12/13 07:54:22;;;;;;;12.25;8.00;;;;;;;5.51;83.01;95147.16;5073407;28;20057;-50
2020/12/13 07:56:53;;;;;;;13.25;8.23;;;;;;;5.61;82.55;95159.47;5072516;28;20075;-46
2020/12/13 07:59:27;;;;;;;11.95;8.18;;;;;;;5.41;83.51;95157.44;5072527;28;20049;-49
2020/12/13 08:01:58;;;;;;;13.35;9.02;;;;;;;5.69;82.27;95160.53;5073264;28;20071;-51
2020/12/13 08:04:37;;;;;;;12.18;8.05;;;;;;;5.72;82.47;95170.63;5072903;28;20154;-54
2020/12/13 08:07:05;;;;;;;12.82;8.50;;;;;;;5.65;82.60;95168.44;5073224;28;20056;-49
2020/12/13 08:09:33;;;;;;;12.98;8.68;;;;;;;5.67;82.39;95171.59;5073163;28;20085;-46
2020/12/13 08:11:59;;;;;;;13.95;8.55;;;;;;;5.95;81.30;95168.56;5073102;28;20056;-49
2020/12/13 08:14:26;;;;;;;12.95;8.85;;;;;;;5.93;81.20;95181.53;5073217;28;20056;-52
2020/12/13 08:16:54;;;;;;;11.50;8.23;;;;;;;5.88;81.52;95173.59;5072363;28;20055;-52
2020/12/13 08:19:26;;;;;;;13.02;8.63;;;;;;;5.86;81.10;95165.88;5073694;28;20053;-49
2020/12/13 08:22:05;;;;;;;12.85;8.18;;;;;;;5.95;80.92;95182.78;5073278;28;20063;-47
2020/12/13 08:24:33;;;;;;;14.30;9.05;;;;;;;5.94;80.71;95183.88;5072858;28;20048;-48
2020/12/13 08:27:00;;;;;;;14.30;8.48;;;;;;;5.95;80.60;95184.69;5071831;28;20417;-49
2020/12/13 08:29:31;;;;;;;13.95;8.93;;;;;;;5.81;81.34;95180.25;5072515;28;20105;-52
2020/12/13 08:31:59;;;;;;;14.13;8.27;;;;;;;5.74;82.04;95185.31;5072560;28;20056;-48
2020/12/13 08:34:30;;;;;;;13.35;9.57;;;;;;;5.75;81.32;95183.41;5072137;28;20098;-48
2020/12/13 08:36:58;;;;;;;12.75;8.88;;;;;;;5.94;81.07;95204.56;5070606;28;20048;-47
2020/12/13 08:39:34;;;;;;;12.98;8.80;;;;;;;5.98;80.94;95208.19;5072761;28;20148;-49
2020/12/13 08:42:03;;;;;;;12.75;8.45;;;;;;;5.69;81.68;95206.16;5072379;28;20071;-49
2020/12/13 08:44:36;;;;;;;13.05;9.00;;;;;;;5.97;81.16;95203.94;5072167;28;20489;-48
2020/12/13 08:47:07;;;;;;;;;;;;;;;5.94;81.56;95215.31;5071954;28;20044;-50
2020/12/13 08:49:38;;;;;;;11.32;8.10;;;;;;;5.95;80.89;95214.22;5072475;28;19920;-48
2020/12/13 08:52:18;;;;;;;12.57;9.15;;;;;;;5.92;81.70;95217.50;5071272;28;20410;-48
2020/12/13 08:55:00;;;;;;;13.10;8.95;;;;;;;5.95;81.67;95227.66;5072723;28;20052;-47
2020/12/13 08:57:30;;;;;;;14.55;9.13;;;;;;;6.04;81.54;95221.13;5070506;28;20053;-50
2020/12/13 09:00:02;;;;;;;11.60;8.30;;;;;;;5.94;81.38;95228.72;5072330;28;20438;-53
2020/12/13 09:03:00;;;;;;;12.40;9.02;;;;;;;6.06;81.31;95240.41;5057186;28;20048;-47
2020/12/13 09:05:34;;;;;;;11.88;8.27;;;;;;;6.01;81.03;95234.41;5071254;28;20056;-50
2020/12/13 09:08:01;;;;;;;11.00;8.13;;;;;;;6.09;80.84;95244.34;5071705;28;20053;-46
2020/12/13 09:10:37;;;;;;;14.10;7.70;;;;;;;6.13;80.32;95244.50;5070657;28;20052;-46
2020/12/13 09:13:07;;;;;;;10.20;6.82;;;;;;;6.15;79.93;95251.13;5072414;28;20080;-45
2020/12/13 09:15:34;;;;;;;9.73;7.32;;;;;;;5.79;81.54;95257.63;5070424;28;20456;-49
2020/12/13 09:18:03;;;;;;;9.95;7.45;;;;;;;5.80;81.74;95259.22;5072390;28;20115;-46
2020/12/13 09:20:31;;;;;;;9.23;7.07;;;;;;;5.73;81.74;95261.59;5054047;28;20048;-54
2020/12/13 09:23:19;;;;;;;8.95;6.60;;;;;;;6.06;80.42;95258.41;5072016;28;20052;-48
2020/12/13 09:25:48;;;;;;;8.48;5.95;;;;;;;5.91;80.61;95269.63;5071292;28;20048;-50
2020/12/13 09:28:16;;;;;;;8.18;6.20;;;;;;;5.93;80.88;95270.91;5071663;28;20173;-46
2020/12/13 09:30:44;;;;;;;7.35;5.75;;;;;;;5.78;80.42;95274.84;5054195;28;20106;-45
2020/12/13 09:33:12;;;;;;;9.68;6.88;;;;;;;5.52;82.32;95274.06;5071690;28;20056;-44
2020/12/13 09:35:39;;;;;;;7.15;5.43;;;;;;;5.48;81.71;95273.13;5069815;28;20075;-49
2020/12/13 09:38:07;;;;;;;7.43;5.72;;;;;;;5.67;81.31;95267.44;5071440;28;20064;-50
2020/12/13 09:40:34;;;;;;;9.05;5.60;;;;;;;5.62;81.44;95279.09;5071698;28;20083;-49
2020/12/13 09:43:02;;;;;;;7.15;5.43;;;;;;;5.60;81.67;95279.44;5071677;28;20118;-50
2020/12/13 09:45:29;;;;;;;6.93;5.47;;;;;;;5.60;81.25;95271.38;5054020;28;20140;-47
2020/12/13 09:47:56;;;;;;;8.95;5.47;;;;;;;5.72;81.15;95267.25;5053985;28;20409;-53
2020/12/13 09:50:27;;;;;;;7.22;5.03;;;;;;;5.65;81.89;95286.53;5070538;28;20048;-50
2020/12/13 09:52:54;;;;;;;6.97;4.78;;;;;;;5.54;82.47;95288.75;5070440;28;20048;-45
2020/12/13 09:55:21;;;;;;;6.38;4.68;;;;;;;5.85;80.46;95291.28;5070813;28;20049;-50
2020/12/13 09:57:56;;;;;;;6.35;4.43;;;;;;;5.77;81.01;95292.06;5070529;28;20044;-48
2020/12/13 10:00:23;;;;;;;7.85;4.85;;;;;;;5.73;81.79;95295.69;5071253;28;20497;-51
2020/12/13 10:02:50;;;;;;;7.30;4.95;;;;;;;5.63;82.02;95302.97;5071301;28;20094;-51
2020/12/13 10:05:43;;;;;;;7.78;5.32;;;;;;;5.64;81.84;95284.97;5069754;28;20048;-49
2020/12/13 10:10:48;;;;;;;6.13;4.55;;;;;;;5.66;81.24;95296.19;5071476;28;20123;-48
2020/12/13 10:13:15;;;;;;;8.02;4.60;;;;;;;5.61;81.58;95277.53;5071817;28;20052;-47
2020/12/13 10:15:42;;;;;;;6.47;4.70;;;;;;;5.52;81.41;95287.47;5069905;28;20049;-52
2020/12/13 10:18:09;;;;;;;5.65;4.28;;;;;;;5.77;81.04;95292.06;5069840;28;20053;-46
2020/12/13 10:20:41;;;;;;;5.85;4.20;;;;;;;5.95;80.30;95297.47;5071209;28;20067;-47
2020/12/13 10:23:07;;;;;;;5.70;3.72;;;;;;;5.80;80.51;95296.78;5074923;28;20076;-50
2020/12/13 10:25:34;;;;;;;6.60;4.20;;;;;;;5.76;80.92;95300.44;5074247;28;20048;-49
2020/12/13 10:28:00;;;;;;;5.22;3.58;;;;;;;5.85;80.11;95301.22;5075037;28;20060;-51
2020/12/13 10:30:27;;;;;;;6.30;4.22;;;;;;;5.74;80.62;95299.94;5074580;28;20123;-46
2020/12/13 10:32:57;;;;;;;5.05;3.80;;;;;;;5.96;79.92;95309.78;5073395;28;20048;-47
2020/12/13 10:35:23;;;;;;;7.40;3.40;;;;;;;6.09;79.46;95290.78;5074100;28;20056;-47
2020/12/13 10:37:49;;;;;;;4.78;3.28;;;;;;;5.93;79.57;95299.66;5074733;28;20109;-52
2020/12/13 10:40:16;;;;;;;4.63;3.10;;;;;;;5.85;79.87;95298.53;5073356;28;20128;-48
2020/12/13 10:42:43;;;;;;;3.90;2.90;;;;;;;5.78;80.05;95290.94;5074844;28;20112;-53
2020/12/13 10:45:09;;;;;;;3.90;2.80;;;;;;;5.82;80.31;95299.97;5073563;28;20409;-46
2020/12/13 10:47:36;;;;;;;4.68;3.30;;;;;;;5.84;80.15;95305.78;5074324;28;20127;-48
2020/12/13 10:50:02;;;;;;;4.97;2.97;;;;;;;5.91;79.79;95301.84;5074403;28;20106;-48
2020/12/13 10:52:29;;;;;;;6.38;3.30;;;;;;;5.67;80.62;95302.31;5073144;28;20052;-48
2020/12/13 10:54:55;;;;;;;6.13;3.25;;;;;;;5.79;79.95;95283.69;5074802;28;20076;-45
2020/12/13 10:57:25;;;;;;;4.50;2.70;;;;;;;5.80;79.61;95282.59;5072921;28;20052;-51
2020/12/13 10:59:51;;;;;;;3.65;2.95;;;;;;;5.91;79.63;95293.78;5074280;28;20052;-44
2020/12/13 11:02:18;;;;;;;5.75;3.72;;;;;;;6.16;79.49;95294.88;5073466;28;20459;-44
2020/12/13 11:04:44;;;;;;;4.65;3.05;;;;;;;5.98;79.84;95294.09;5074573;28;20141;-46
2020/12/13 11:07:12;;;;;;;3.10;2.30;;;;;;;6.19;78.56;95292.34;5074873;28;20059;-46
2020/12/13 11:09:39;;;;;;;3.67;2.50;;;;;;;5.93;78.93;95292.38;5074445;28;20127;-48
2020/12/13 11:12:06;;;;;;;3.67;2.35;;;;;;;5.84;79.52;95292.34;5074267;28;20072;-51
2020/12/13 11:14:32;;;;;;;3.30;2.30;;;;;;;5.77;79.92;95275.94;5074225;28;20091;-51
2020/12/13 11:16:58;;;;;;;4.15;2.60;;;;;;;5.87;79.28;95285.56;5073520;28;20063;-45
2020/12/13 11:19:26;;;;;;;3.72;2.67;;;;;;;5.70;80.21;95297.13;5074811;28;20053;-51
2020/12/13 11:21:53;;;;;;;3.17;1.98;;;;;;;5.65;80.33;95294.56;5075163;28;20469;-50
2020/12/13 11:24:20;;;;;;;2.95;2.10;;;;;;;5.89;79.73;95285.28;5074237;28;20076;-45
2020/12/13 11:26:47;;;;;;;4.57;1.98;;;;;;;5.81;80.27;95293.00;5073407;28;20041;-47
2020/12/13 11:29:14;;;;;;;3.55;2.17;;;;;;;5.49;81.01;95267.44;5074203;28;20052;-45
2020/12/13 11:31:40;;;;;;;3.20;2.10;;;;;;;5.77;80.72;95289.38;5072919;28;20059;-47
2020/12/13 11:34:07;;;;;;;3.88;2.50;;;;;;;5.59;82.04;95285.91;5074136;28;20112;-49
2020/12/13 11:36:34;;;;;;;4.43;2.55;;;;;;;5.92;81.00;95293.47;5072334;28;20466;-49
2020/12/13 11:39:00;;;;;;;4.00;2.50;;;;;;;5.92;81.65;95298.06;5073643;28;20040;-51
2020/12/13 11:41:29;;;;;;;7.47;3.10;;;;;;;5.95;81.30;95308.97;5074077;28;20052;-47
2020/12/13 11:43:56;;;;;;;4.03;2.63;;;;;;;6.12;81.05;95300.09;5073997;28;20487;-48
2020/12/13 11:46:22;;;;;;;5.45;2.60;;;;;;;6.15;80.92;95298.69;5094634;22;20044;-46
2020/12/13 11:48:49;;;;;;;4.00;2.33;;;;;;;6.11;80.85;95306.59;5031587;28;20063;-46
2020/12/13 11:51:20;;;;;;;2.97;2.35;;;;;;;6.14;81.05;95303.25;5032938;28;20053;-49
2020/12/13 11:53:46;;;;;;;3.63;2.40;;;;;;;6.17;80.55;95305.28;5032947;28;20064;-47